Time;durP1;ratioP1;P1;durP2;ratioP2;P2;SDS_P1;SDS_P2;PMS_P1;PMS_P2;Temp;Humidity;BMP_temperature;BMP_pressure;BME280_temperature;BME280_humidity;BME280_pressure;Samples;Min_cycle;Max_cycle;Signal;HPM_P1;HPM_P2
2024/03/05 00:00:52;;;;;;;32.92;23.50;;;;;;;;;;4920551;29;20056;-93
2024/03/05 00:03:18;;;;;;;32.35;24.13;;;;;;;;;;4920609;29;20068;-91
2024/03/05 00:05:44;;;;;;;34.58;23.98;;;;;;;;;;4921798;29;20039;-94
2024/03/05 00:08:10;;;;;;;34.75;24.15;;;;;;;;;;4922211;29;20473;-94
2024/03/05 00:10:37;;;;;;;40.35;28.27;;;;;;;;;;4924311;29;20044;-92
2024/03/05 00:13:03;;;;;;;50.20;27.55;;;;;;;;;;4923086;29;20024;-92
2024/03/05 00:15:29;;;;;;;37.53;25.98;;;;;;;;;;4921227;29;20035;-93
2024/03/05 00:17:55;;;;;;;37.50;23.15;;;;;;;;;;4922276;29;20031;-92
2024/03/05 00:20:21;;;;;;;31.73;24.15;;;;;;;;;;4926763;29;20138;-94
2024/03/05 00:22:51;;;;;;;38.58;23.33;;;;;;;;;;4921303;29;20028;-92
2024/03/05 00:25:18;;;;;;;35.35;21.77;;;;;;;;;;4921220;29;20118;-94
2024/03/05 00:27:44;;;;;;;38.47;22.58;;;;;;;;;;4920684;29;20032;-93
2024/03/05 00:30:13;;;;;;;43.88;25.33;;;;;;;;;;4920641;29;20160;-94
2024/03/05 00:32:40;;;;;;;42.90;24.92;;;;;;;;;;4938458;28;20063;-88
2024/03/05 00:35:09;;;;;;;39.72;25.55;;;;;;;;;;4940827;29;20060;-94
2024/03/05 00:37:36;;;;;;;39.47;23.85;;;;;;;;;;4920708;29;20047;-92
2024/03/05 00:40:06;;;;;;;46.28;27.40;;;;;;;;;;4920955;29;20024;-92
2024/03/05 00:42:32;;;;;;;37.20;22.92;;;;;;;;;;4920949;29;20059;-95
2024/03/05 00:45:02;;;;;;;40.03;24.50;;;;;;;;;;4923178;29;20026;-93
2024/03/05 00:47:31;;;;;;;34.92;23.80;;;;;;;;;;4924674;29;20031;-93
2024/03/05 00:49:59;;;;;;;31.20;21.58;;;;;;;;;;4924859;29;20123;-93
2024/03/05 00:52:25;;;;;;;36.42;23.60;;;;;;;;;;4923876;29;20090;-94
2024/03/05 00:54:51;;;;;;;30.55;19.88;;;;;;;;;;4924352;29;20020;-92
2024/03/05 00:57:17;;;;;;;27.38;18.40;;;;;;;;;;4925840;29;20042;-92
2024/03/05 00:59:44;;;;;;;29.10;18.95;;;;;;;;;;4925995;28;20473;-93
2024/03/05 01:02:11;;;;;;;27.58;17.88;;;;;;;;;;4944780;29;20548;-93
2024/03/05 01:04:38;;;;;;;31.65;19.15;;;;;;;;;;4947673;29;20059;-94
2024/03/05 01:07:04;;;;;;;29.13;18.30;;;;;;;;;;4942932;29;20027;-92
2024/03/05 01:09:31;;;;;;;28.65;18.88;;;;;;;;;;4942693;29;20063;-94
2024/03/05 01:12:01;;;;;;;29.90;21.77;;;;;;;;;;4942523;29;20035;-93
2024/03/05 01:14:27;;;;;;;29.98;20.05;;;;;;;;;;4942759;29;20032;-93
2024/03/05 01:16:53;;;;;;;31.27;22.35;;;;;;;;;;4943923;29;20031;-94
2024/03/05 01:19:22;;;;;;;26.48;20.25;;;;;;;;;;4937275;29;20031;-92
2024/03/05 01:21:48;;;;;;;28.63;21.33;;;;;;;;;;4923623;29;20024;-95
2024/03/05 01:24:14;;;;;;;29.67;21.38;;;;;;;;;;4923805;29;20036;-91
2024/03/05 01:26:43;;;;;;;28.08;21.67;;;;;;;;;;4925612;29;20396;-93
2024/03/05 01:29:12;;;;;;;27.95;21.27;;;;;;;;;;4930871;29;20027;-91
2024/03/05 01:31:39;;;;;;;29.98;21.17;;;;;;;;;;4949333;28;20023;-93
2024/03/05 01:34:05;;;;;;;28.90;23.00;;;;;;;;;;4962672;29;20039;-93
2024/03/05 01:36:37;;;;;;;29.42;22.77;;;;;;;;;;4949176;29;20067;-92
2024/03/05 01:39:12;;;;;;;32.50;23.00;;;;;;;;;;4942752;29;20027;-93
2024/03/05 01:41:38;;;;;;;32.15;24.00;;;;;;;;;;4943297;29;20081;-94
2024/03/05 01:44:04;;;;;;;31.48;23.80;;;;;;;;;;4942658;29;20023;-94
2024/03/05 01:46:31;;;;;;;34.67;23.85;;;;;;;;;;4942381;29;20035;-94
2024/03/05 01:48:57;;;;;;;36.05;24.98;;;;;;;;;;4942447;29;20059;-94
2024/03/05 01:51:24;;;;;;;33.55;26.45;;;;;;;;;;4942436;29;20035;-94
2024/03/05 01:53:52;;;;;;;34.47;24.55;;;;;;;;;;4929607;29;20039;-95
2024/03/05 01:56:20;;;;;;;30.95;21.60;;;;;;;;;;4923748;29;20031;-91
2024/03/05 01:58:47;;;;;;;31.25;21.02;;;;;;;;;;4932795;28;20015;-89
2024/03/05 02:01:16;;;;;;;32.13;24.30;;;;;;;;;;4947282;29;20084;-92
2024/03/05 02:03:42;;;;;;;32.65;21.45;;;;;;;;;;4932076;29;20425;-93
2024/03/05 02:06:10;;;;;;;28.98;21.02;;;;;;;;;;4922822;29;20396;-92
2024/03/05 02:08:37;;;;;;;30.55;22.25;;;;;;;;;;4923668;29;20035;-95
2024/03/05 02:11:03;;;;;;;33.60;26.45;;;;;;;;;;4924699;29;20039;-95
2024/03/05 02:13:30;;;;;;;34.55;21.00;;;;;;;;;;4923771;29;20500;-93
2024/03/05 02:15:56;;;;;;;33.08;26.20;;;;;;;;;;4922928;29;20119;-93
2024/03/05 02:18:22;;;;;;;40.08;25.17;;;;;;;;;;4923635;29;20176;-92
2024/03/05 02:20:49;;;;;;;32.08;25.10;;;;;;;;;;4923419;29;20051;-95
2024/03/05 02:23:16;;;;;;;34.42;25.83;;;;;;;;;;4923156;29;20086;-96
2024/03/05 02:25:45;;;;;;;35.20;24.38;;;;;;;;;;4923356;29;20062;-92
2024/03/05 02:28:12;;;;;;;35.47;25.35;;;;;;;;;;4922783;29;20032;-94
2024/03/05 02:30:40;;;;;;;39.92;27.42;;;;;;;;;;4922366;29;20130;-91
2024/03/05 02:33:09;;;;;;;38.55;28.88;;;;;;;;;;4923505;29;20028;-95
2024/03/05 02:35:35;;;;;;;37.10;27.00;;;;;;;;;;4923801;29;20039;-92
2024/03/05 02:38:05;;;;;;;39.60;28.58;;;;;;;;;;4922321;29;20031;-93
2024/03/05 02:40:31;;;;;;;36.95;27.13;;;;;;;;;;4922589;29;20027;-93
2024/03/05 02:42:58;;;;;;;40.50;27.75;;;;;;;;;;4922256;29;20035;-92
2024/03/05 02:45:28;;;;;;;39.75;26.65;;;;;;;;;;4922232;29;20031;-95
2024/03/05 02:47:54;;;;;;;37.38;26.02;;;;;;;;;;4922070;29;20043;-93
2024/03/05 02:50:20;;;;;;;38.70;26.48;;;;;;;;;;4922888;29;20055;-93
2024/03/05 02:52:47;;;;;;;41.15;27.25;;;;;;;;;;4925752;29;20067;-91
2024/03/05 02:55:14;;;;;;;40.70;26.35;;;;;;;;;;4938085;29;20012;-94
2024/03/05 02:57:41;;;;;;;39.42;25.45;;;;;;;;;;4941990;29;20032;-92
2024/03/05 03:00:18;;;;;;;38.22;24.90;;;;;;;;;;4922516;29;20040;-94
2024/03/05 03:02:46;;;;;;;37.90;23.80;;;;;;;;;;4923045;29;20030;-95
2024/03/05 03:05:13;;;;;;;35.58;24.50;;;;;;;;;;4921523;29;20079;-95
2024/03/05 03:07:39;;;;;;;35.97;22.77;;;;;;;;;;4905134;29;20035;-92
2024/03/05 03:10:05;;;;;;;37.75;23.83;;;;;;;;;;4938911;29;20066;-93
2024/03/05 03:12:31;;;;;;;38.35;23.55;;;;;;;;;;4946582;29;20040;-93
2024/03/05 03:14:58;;;;;;;40.50;26.30;;;;;;;;;;4934516;29;20038;-94
2024/03/05 03:17:26;;;;;;;41.65;24.48;;;;;;;;;;4921940;29;20019;-94
2024/03/05 03:19:52;;;;;;;39.70;24.00;;;;;;;;;;4921486;29;20055;-93
2024/03/05 03:22:19;;;;;;;39.72;23.02;;;;;;;;;;4921301;29;20102;-93
2024/03/05 03:24:45;;;;;;;36.00;22.75;;;;;;;;;;4921402;29;20078;-92
2024/03/05 03:27:11;;;;;;;34.97;22.70;;;;;;;;;;4932927;29;20020;-89
2024/03/05 03:29:40;;;;;;;39.58;23.33;;;;;;;;;;4941083;29;20067;-93
2024/03/05 03:32:10;;;;;;;36.17;23.70;;;;;;;;;;4926558;29;20083;-92
2024/03/05 03:34:36;;;;;;;38.92;22.90;;;;;;;;;;4921648;29;20091;-95
2024/03/05 03:37:02;;;;;;;37.28;22.92;;;;;;;;;;4937491;29;20035;-91
2024/03/05 03:39:33;;;;;;;35.88;22.33;;;;;;;;;;4939732;29;20035;-93
2024/03/05 03:42:00;;;;;;;33.53;22.55;;;;;;;;;;4924568;29;20031;-93
2024/03/05 03:44:26;;;;;;;36.53;23.38;;;;;;;;;;4937227;29;20381;-95
2024/03/05 03:46:56;;;;;;;35.97;22.65;;;;;;;;;;4938363;29;20075;-95
2024/03/05 03:49:23;;;;;;;36.50;23.95;;;;;;;;;;4936814;29;20036;-92
2024/03/05 03:51:50;;;;;;;37.65;24.83;;;;;;;;;;4937135;29;20115;-95
2024/03/05 03:54:16;;;;;;;39.22;23.35;;;;;;;;;;4936807;29;20031;-92
2024/03/05 03:56:42;;;;;;;36.35;22.55;;;;;;;;;;4936965;29;20028;-93
2024/03/05 03:59:09;;;;;;;34.30;23.48;;;;;;;;;;4936516;29;20032;-91
2024/03/05 04:01:36;;;;;;;35.60;21.90;;;;;;;;;;4928536;29;20059;-93
2024/03/05 04:04:02;;;;;;;36.92;23.17;;;;;;;;;;4921291;29;20035;-94
2024/03/05 04:06:30;;;;;;;33.58;22.10;;;;;;;;;;4920669;29;20090;-91
2024/03/05 04:08:56;;;;;;;35.85;22.98;;;;;;;;;;4920985;29;20034;-94
2024/03/05 04:11:23;;;;;;;40.50;24.20;;;;;;;;;;4905942;29;20043;-92
2024/03/05 04:13:49;;;;;;;41.42;24.70;;;;;;;;;;4921462;29;20038;-93
2024/03/05 04:16:24;;;;;;;39.17;25.65;;;;;;;;;;4920757;29;20059;-93
2024/03/05 04:18:50;;;;;;;37.30;23.20;;;;;;;;;;4922478;29;20094;-95
2024/03/05 04:21:17;;;;;;;36.20;24.48;;;;;;;;;;4937640;29;20047;-92
2024/03/05 04:23:46;;;;;;;33.30;24.33;;;;;;;;;;4936756;29;20473;-94
2024/03/05 04:26:22;;;;;;;36.83;24.55;;;;;;;;;;4937657;29;20036;-93
2024/03/05 04:28:54;;;;;;;35.42;24.88;;;;;;;;;;4936470;29;20031;-95
2024/03/05 04:31:20;;;;;;;37.90;24.73;;;;;;;;;;4937013;29;20069;-94
2024/03/05 04:33:48;;;;;;;42.05;24.42;;;;;;;;;;4937156;29;20370;-95
2024/03/05 04:36:17;;;;;;;36.78;25.20;;;;;;;;;;4936669;29;20027;-93
2024/03/05 04:38:44;;;;;;;39.25;25.10;;;;;;;;;;4934617;29;20060;-94
2024/03/05 04:41:13;;;;;;;39.15;25.77;;;;;;;;;;4920835;29;20031;-92
2024/03/05 04:43:40;;;;;;;38.45;24.77;;;;;;;;;;4933806;29;20027;-95
2024/03/05 04:46:13;;;;;;;39.28;26.38;;;;;;;;;;4920692;29;20032;-93
2024/03/05 04:48:39;;;;;;;36.60;25.45;;;;;;;;;;4913156;29;20031;-93
2024/03/05 04:51:12;;;;;;;38.47;24.25;;;;;;;;;;4933484;29;20048;-92
2024/03/05 04:53:39;;;;;;;40.00;25.25;;;;;;;;;;4955728;29;20043;-92
2024/03/05 04:56:08;;;;;;;39.47;24.35;;;;;;;;;;4943577;29;20028;-90
2024/03/05 04:58:37;;;;;;;37.65;24.55;;;;;;;;;;4931749;29;20048;-94
2024/03/05 05:01:04;;;;;;;38.20;25.70;;;;;;;;;;4920714;29;20516;-95
2024/03/05 05:03:30;;;;;;;42.55;27.15;;;;;;;;;;4920227;29;20103;-93
2024/03/05 05:06:00;;;;;;;46.90;29.90;;;;;;;;;;4919952;29;20028;-93
2024/03/05 05:08:26;;;;;;;46.75;28.05;;;;;;;;;;4920158;29;20038;-95
2024/03/05 05:10:53;;;;;;;45.08;27.63;;;;;;;;;;4933686;29;20040;-92
2024/03/05 05:13:22;;;;;;;42.17;26.73;;;;;;;;;;4920495;29;20040;-95
2024/03/05 05:15:49;;;;;;;46.33;26.92;;;;;;;;;;4920624;29;20036;-92
2024/03/05 05:18:21;;;;;;;46.60;29.33;;;;;;;;;;4920066;29;20047;-93
2024/03/05 05:20:47;;;;;;;42.55;25.10;;;;;;;;;;4920694;29;20032;-92
2024/03/05 05:23:13;;;;;;;43.03;26.90;;;;;;;;;;4922028;29;20028;-93
2024/03/05 05:25:42;;;;;;;47.75;29.70;;;;;;;;;;4922331;29;20496;-92
2024/03/05 05:28:08;;;;;;;45.88;28.55;;;;;;;;;;4923184;29;20028;-94
2024/03/05 05:30:35;;;;;;;45.42;28.13;;;;;;;;;;4924562;29;20046;-95
2024/03/05 05:33:01;;;;;;;46.50;27.30;;;;;;;;;;4925813;29;20036;-94
2024/03/05 05:35:28;;;;;;;50.72;29.23;;;;;;;;;;4941499;29;20050;-93
2024/03/05 05:37:56;;;;;;;47.28;29.13;;;;;;;;;;4942803;29;20016;-93
2024/03/05 05:40:23;;;;;;;49.90;29.67;;;;;;;;;;4927400;29;20031;-96
2024/03/05 05:42:52;;;;;;;55.90;29.92;;;;;;;;;;4939333;29;20036;-94
2024/03/05 05:45:21;;;;;;;44.10;27.92;;;;;;;;;;4940193;29;20028;-93
2024/03/05 05:47:54;;;;;;;49.83;30.30;;;;;;;;;;4928344;29;20020;-92
2024/03/05 05:50:22;;;;;;;46.22;28.23;;;;;;;;;;4940635;29;20036;-95
2024/03/05 05:52:50;;;;;;;48.78;27.95;;;;;;;;;;4939709;29;20044;-93
2024/03/05 05:55:20;;;;;;;48.40;30.63;;;;;;;;;;4932550;29;20035;-93
2024/03/05 05:57:47;;;;;;;52.08;31.00;;;;;;;;;;4923622;29;20039;-92
2024/03/05 06:00:24;;;;;;;49.33;30.45;;;;;;;;;;4922970;29;20039;-95
2024/03/05 06:02:54;;;;;;;48.75;30.00;;;;;;;;;;4942341;29;20062;-94
2024/03/05 06:05:30;;;;;;;53.13;30.73;;;;;;;;;;4926538;29;20063;-92
2024/03/05 06:07:58;;;;;;;49.40;31.35;;;;;;;;;;4925197;29;20596;-94
2024/03/05 06:10:24;;;;;;;42.47;27.77;;;;;;;;;;4926187;29;20036;-95
2024/03/05 06:12:52;;;;;;;53.20;29.25;;;;;;;;;;4927214;29;20035;-92
2024/03/05 06:15:18;;;;;;;46.08;32.13;;;;;;;;;;4923567;29;20067;-94
2024/03/05 06:17:45;;;;;;;47.78;33.83;;;;;;;;;;4925356;29;20024;-91
2024/03/05 06:20:11;;;;;;;51.70;38.63;;;;;;;;;;4925125;29;20035;-94
2024/03/05 06:22:44;;;;;;;41.75;36.22;;;;;;;;;;4936299;29;20012;-92
2024/03/05 06:25:13;;;;;;;37.83;29.92;;;;;;;;;;4941069;29;20032;-93
2024/03/05 06:27:42;;;;;;;44.13;36.65;;;;;;;;;;4947525;29;20041;-94
2024/03/05 06:30:17;;;;;;;41.55;37.25;;;;;;;;;;4933619;29;20126;-95
2024/03/05 06:35:48;;;;;;;;;;;;;;;;;;4948158;29;20038;-92
2024/03/05 06:38:15;;;;;;;38.67;33.58;;;;;;;;;;4939154;29;19907;-93
2024/03/05 06:40:41;;;;;;;40.58;36.33;;;;;;;;;;4926181;29;20051;-94
2024/03/05 06:43:20;;;;;;;37.50;33.70;;;;;;;;;;4924050;29;20103;-95
2024/03/05 06:45:46;;;;;;;33.47;29.33;;;;;;;;;;4939264;29;20036;-95
2024/03/05 06:48:22;;;;;;;35.42;31.83;;;;;;;;;;4938343;29;20397;-92
2024/03/05 06:50:57;;;;;;;33.85;30.23;;;;;;;;;;4939579;29;20114;-93
2024/03/05 06:58:57;;;;;;;39.53;35.33;;;;;;;;;;4940036;29;20039;-93
2024/03/05 07:01:55;;;;;;;38.72;33.92;;;;;;;;;;4943872;29;20075;-92
2024/03/05 07:04:22;;;;;;;39.53;35.38;;;;;;;;;;4946964;29;20079;-93
2024/03/05 07:06:49;;;;;;;41.88;37.67;;;;;;;;;;4936497;29;20495;-96
2024/03/05 07:09:30;;;;;;;37.75;33.85;;;;;;;;;;4929365;29;20043;-94
2024/03/05 07:12:01;;;;;;;36.33;32.55;;;;;;;;;;4942416;29;20067;-96
2024/03/05 07:14:27;;;;;;;37.25;33.35;;;;;;;;;;4924070;29;20436;-95
2024/03/05 07:16:54;;;;;;;42.97;38.42;;;;;;;;;;4930182;29;20074;-94
2024/03/05 07:19:20;;;;;;;40.95;36.58;;;;;;;;;;4935281;29;20039;-95
2024/03/05 07:21:47;;;;;;;44.83;36.78;;;;;;;;;;4942347;29;20525;-94
2024/03/05 07:24:14;;;;;;;40.90;36.75;;;;;;;;;;4923337;29;20022;-95
2024/03/05 07:26:40;;;;;;;39.55;35.45;;;;;;;;;;4926068;29;20038;-96
2024/03/05 07:29:06;;;;;;;37.38;33.35;;;;;;;;;;4923625;29;20042;-95
2024/03/05 07:31:32;;;;;;;34.33;30.70;;;;;;;;;;4924002;29;20035;-94
2024/03/05 07:33:58;;;;;;;33.78;30.13;;;;;;;;;;4923240;29;20028;-95
2024/03/05 07:36:25;;;;;;;49.75;38.75;;;;;;;;;;4922530;29;20020;-94
2024/03/05 07:38:54;;;;;;;52.90;40.60;;;;;;;;;;4922267;29;20059;-95
2024/03/05 07:41:20;;;;;;;38.58;34.25;;;;;;;;;;4922329;29;20066;-92
2024/03/05 07:43:47;;;;;;;37.67;33.65;;;;;;;;;;4924870;29;20389;-94
2024/03/05 07:46:18;;;;;;;35.38;31.63;;;;;;;;;;4923189;29;20111;-94
2024/03/05 07:48:44;;;;;;;44.00;35.83;;;;;;;;;;4923810;29;20036;-94
2024/03/05 07:51:10;;;;;;;34.70;30.80;;;;;;;;;;4951499;29;20028;-91
2024/03/05 07:56:37;;;;;;;37.25;33.20;;;;;;;;;;5066997;23;20058;-95
2024/03/05 07:59:03;;;;;;;38.20;34.05;;;;;;;;;;4902625;29;20024;-95
2024/03/05 08:01:30;;;;;;;38.42;34.10;;;;;;;;;;4903664;29;20384;-94
2024/03/05 08:03:57;;;;;;;37.47;32.97;;;;;;;;;;4902080;29;20028;-95
2024/03/05 08:06:23;;;;;;;37.30;33.30;;;;;;;;;;4903304;29;20032;-93
2024/03/05 08:08:49;;;;;;;34.58;30.88;;;;;;;;;;4909052;29;20035;-93
2024/03/05 08:11:15;;;;;;;37.67;33.60;;;;;;;;;;4915281;29;20056;-95
2024/03/05 08:13:42;;;;;;;36.67;32.13;;;;;;;;;;4909336;29;20036;-91
2024/03/05 08:16:09;;;;;;;36.05;31.98;;;;;;;;;;4885301;29;20379;-96
2024/03/05 08:18:36;;;;;;;34.42;30.73;;;;;;;;;;4883996;29;20055;-92
2024/03/05 08:21:02;;;;;;;36.70;31.95;;;;;;;;;;4883793;29;20067;-94
2024/03/05 08:23:28;;;;;;;34.28;29.80;;;;;;;;;;4885357;29;20032;-95
2024/03/05 08:25:57;;;;;;;41.85;35.00;;;;;;;;;;4885336;29;20140;-94
2024/03/05 08:28:24;;;;;;;35.47;30.52;;;;;;;;;;4884909;29;20032;-95
2024/03/05 08:30:53;;;;;;;36.03;28.65;;;;;;;;;;4884570;29;20033;-94
2024/03/05 08:33:20;;;;;;;35.38;31.05;;;;;;;;;;4882971;29;20035;-93
2024/03/05 08:35:47;;;;;;;38.38;32.83;;;;;;;;;;4883626;29;20029;-94
2024/03/05 08:38:13;;;;;;;37.35;33.05;;;;;;;;;;4883827;29;20047;-94
2024/03/05 08:40:42;;;;;;;37.75;32.50;;;;;;;;;;4886157;29;20037;-95
2024/03/05 08:43:09;;;;;;;39.42;33.25;;;;;;;;;;4894013;29;20060;-94
2024/03/05 08:45:36;;;;;;;39.65;33.38;;;;;;;;;;4906809;29;20043;-95
2024/03/05 08:48:03;;;;;;;39.53;34.72;;;;;;;;;;4894018;29;20390;-95
2024/03/05 08:50:29;;;;;;;36.75;32.83;;;;;;;;;;4898336;29;20453;-95
2024/03/05 08:52:57;;;;;;;33.83;28.55;;;;;;;;;;4904295;29;20450;-93
2024/03/05 08:55:24;;;;;;;34.58;30.67;;;;;;;;;;4890486;29;20044;-93
2024/03/05 08:57:51;;;;;;;38.20;31.58;;;;;;;;;;4884897;29;20056;-92
2024/03/05 09:00:18;;;;;;;32.75;29.00;;;;;;;;;;4902724;29;20068;-93
2024/03/05 09:02:44;;;;;;;32.00;28.15;;;;;;;;;;4888950;29;20024;-93
2024/03/05 09:05:10;;;;;;;32.90;29.35;;;;;;;;;;4938868;29;20022;-93
2024/03/05 09:07:37;;;;;;;33.20;28.50;;;;;;;;;;4901542;29;20127;-93
2024/03/05 09:10:07;;;;;;;35.88;30.00;;;;;;;;;;4899305;29;20028;-96
2024/03/05 09:12:33;;;;;;;35.63;30.90;;;;;;;;;;4907988;29;20036;-93
2024/03/05 09:14:59;;;;;;;34.17;29.45;;;;;;;;;;4908844;29;20028;-96
2024/03/05 09:17:26;;;;;;;35.47;30.80;;;;;;;;;;4904024;29;20039;-93
2024/03/05 09:19:52;;;;;;;37.45;32.15;;;;;;;;;;4918324;29;20095;-93
2024/03/05 09:22:19;;;;;;;38.13;32.58;;;;;;;;;;4911138;29;20036;-96
2024/03/05 09:24:48;;;;;;;37.83;32.35;;;;;;;;;;4908950;29;20024;-92
2024/03/05 09:27:14;;;;;;;36.67;32.78;;;;;;;;;;4892439;29;20415;-94
2024/03/05 09:29:41;;;;;;;35.28;31.40;;;;;;;;;;4886096;29;20509;-96
2024/03/05 09:32:18;;;;;;;34.80;30.98;;;;;;;;;;4888085;29;20032;-93
2024/03/05 09:34:45;;;;;;;36.85;30.95;;;;;;;;;;4906927;29;20064;-93
2024/03/05 09:37:11;;;;;;;35.83;30.92;;;;;;;;;;4909167;29;20039;-96
2024/03/05 09:39:37;;;;;;;35.08;30.50;;;;;;;;;;4889780;29;20089;-94
2024/03/05 09:42:04;;;;;;;34.60;30.05;;;;;;;;;;4888476;29;20025;-94
2024/03/05 09:44:30;;;;;;;33.03;29.45;;;;;;;;;;4903759;29;20052;-95
2024/03/05 09:46:57;;;;;;;31.25;27.17;;;;;;;;;;4919013;29;20016;-95
2024/03/05 09:49:24;;;;;;;30.27;26.98;;;;;;;;;;4911369;29;20020;-94
2024/03/05 09:51:51;;;;;;;35.05;28.33;;;;;;;;;;4891770;29;20036;-96
2024/03/05 09:54:17;;;;;;;32.58;28.20;;;;;;;;;;4893095;29;20020;-94
2024/03/05 09:56:45;;;;;;;34.03;28.10;;;;;;;;;;4900004;29;20047;-94
2024/03/05 09:59:12;;;;;;;30.42;27.23;;;;;;;;;;4888125;29;20073;-96
2024/03/05 10:01:44;;;;;;;31.73;26.33;;;;;;;;;;4895293;29;20043;-92
2024/03/05 10:04:12;;;;;;;31.30;27.30;;;;;;;;;;4889655;29;20053;-95
2024/03/05 10:06:39;;;;;;;31.90;28.45;;;;;;;;;;4888170;29;20040;-95
2024/03/05 10:09:08;;;;;;;31.75;27.23;;;;;;;;;;4895719;29;20076;-95
2024/03/05 10:11:35;;;;;;;28.60;25.60;;;;;;;;;;4909185;29;20095;-93
2024/03/05 10:14:08;;;;;;;29.00;25.73;;;;;;;;;;4909663;29;20451;-95
2024/03/05 10:16:35;;;;;;;31.85;27.40;;;;;;;;;;4906090;29;20035;-94
2024/03/05 10:19:15;;;;;;;29.17;25.83;;;;;;;;;;4905330;29;20028;-95
2024/03/05 10:21:41;;;;;;;36.78;29.63;;;;;;;;;;4922200;29;20476;-94
2024/03/05 10:24:09;;;;;;;38.58;32.88;;;;;;;;;;4910158;29;20036;-94
2024/03/05 10:26:36;;;;;;;35.70;31.90;;;;;;;;;;4904925;29;20087;-95
2024/03/05 10:29:09;;;;;;;35.17;30.05;;;;;;;;;;4891333;29;20052;-95
2024/03/05 10:31:36;;;;;;;39.00;34.83;;;;;;;;;;4886805;29;20100;-95
2024/03/05 10:34:03;;;;;;;40.17;34.50;;;;;;;;;;4887029;29;20036;-95
2024/03/05 10:36:43;;;;;;;38.47;34.38;;;;;;;;;;4894071;29;20084;-93
2024/03/05 10:39:12;;;;;;;38.80;33.70;;;;;;;;;;4885901;29;20037;-96
2024/03/05 10:41:41;;;;;;;39.25;35.15;;;;;;;;;;4886700;29;20473;-92
2024/03/05 10:44:08;;;;;;;39.72;35.40;;;;;;;;;;4885970;29;20024;-93
2024/03/05 10:46:36;;;;;;;39.67;33.45;;;;;;;;;;4897807;29;20032;-91
2024/03/05 10:49:03;;;;;;;39.30;33.25;;;;;;;;;;4910881;29;20037;-95
2024/03/05 10:51:35;;;;;;;41.17;33.72;;;;;;;;;;4892065;29;20040;-92
2024/03/05 10:54:02;;;;;;;39.92;35.67;;;;;;;;;;4895072;29;20494;-94
2024/03/05 10:56:31;;;;;;;41.05;35.13;;;;;;;;;;4886263;29;20049;-92
2024/03/05 11:01:42;;;;;;;39.70;35.40;;;;;;;;;;4902958;29;20103;-93
2024/03/05 11:04:12;;;;;;;40.78;33.90;;;;;;;;;;4887039;29;20064;-95
2024/03/05 11:06:40;;;;;;;40.35;33.30;;;;;;;;;;4891011;29;20079;-95
2024/03/05 11:09:07;;;;;;;38.22;33.97;;;;;;;;;;4898987;29;20032;-94
2024/03/05 11:11:34;;;;;;;37.40;30.42;;;;;;;;;;4886837;29;20044;-95
2024/03/05 11:14:02;;;;;;;40.22;35.20;;;;;;;;;;4893534;29;20045;-93
2024/03/05 11:16:32;;;;;;;45.75;38.42;;;;;;;;;;4885791;29;20139;-95
2024/03/05 11:18:59;;;;;;;44.78;37.95;;;;;;;;;;4899188;29;20553;-94
2024/03/05 11:21:25;;;;;;;45.38;40.50;;;;;;;;;;4903327;29;20024;-95
2024/03/05 11:23:52;;;;;;;45.53;40.55;;;;;;;;;;4903926;28;20038;-94
2024/03/05 11:26:32;;;;;;;48.83;40.17;;;;;;;;;;4906751;29;20056;-94
2024/03/05 11:29:16;;;;;;;44.55;39.13;;;;;;;;;;4889555;29;20494;-92
2024/03/05 11:31:50;;;;;;;47.47;42.42;;;;;;;;;;4885156;29;20127;-93
2024/03/05 11:34:17;;;;;;;45.40;37.92;;;;;;;;;;4886830;29;20025;-93
2024/03/05 11:36:45;;;;;;;41.20;36.35;;;;;;;;;;4884428;29;20033;-92
2024/03/05 11:39:15;;;;;;;43.47;35.78;;;;;;;;;;4884787;29;20029;-94
2024/03/05 11:41:42;;;;;;;44.03;34.83;;;;;;;;;;4886423;29;20076;-92
2024/03/05 11:44:11;;;;;;;43.95;36.75;;;;;;;;;;4900992;29;20032;-93
2024/03/05 11:46:47;;;;;;;43.95;37.22;;;;;;;;;;4903288;29;20036;-92
2024/03/05 11:49:14;;;;;;;46.38;38.00;;;;;;;;;;4904869;29;20110;-93
2024/03/05 11:51:44;;;;;;;42.83;35.97;;;;;;;;;;4908855;29;20485;-91
2024/03/05 11:54:12;;;;;;;42.85;37.83;;;;;;;;;;4905467;29;20020;-95
2024/03/05 11:56:40;;;;;;;46.42;37.10;;;;;;;;;;4924857;29;20051;-91
2024/03/05 11:59:06;;;;;;;45.53;37.17;;;;;;;;;;4895102;29;20130;-93
2024/03/05 12:01:33;;;;;;;42.78;37.63;;;;;;;;;;4888957;29;20062;-92
2024/03/05 12:04:00;;;;;;;42.13;37.00;;;;;;;;;;4886388;29;20037;-91
2024/03/05 12:06:27;;;;;;;45.75;36.90;;;;;;;;;;4888371;29;20028;-94
2024/03/05 12:08:54;;;;;;;43.40;37.65;;;;;;;;;;4901766;29;20508;-92
2024/03/05 12:11:20;;;;;;;43.13;35.97;;;;;;;;;;4905085;29;20036;-94
2024/03/05 12:13:47;;;;;;;42.72;36.03;;;;;;;;;;4907103;29;20409;-94
2024/03/05 12:16:16;;;;;;;45.58;37.13;;;;;;;;;;4909433;29;20139;-92
2024/03/05 12:18:43;;;;;;;41.25;34.42;;;;;;;;;;4921541;29;20035;-92
2024/03/05 12:21:10;;;;;;;43.38;36.38;;;;;;;;;;4908400;29;20039;-95
2024/03/05 12:23:39;;;;;;;41.25;35.45;;;;;;;;;;4905217;29;20052;-96
2024/03/05 12:26:05;;;;;;;43.20;35.78;;;;;;;;;;4888967;29;20043;-94
2024/03/05 12:28:31;;;;;;;41.13;34.33;;;;;;;;;;4885306;29;20028;-92
2024/03/05 12:30:58;;;;;;;43.10;34.05;;;;;;;;;;4885736;29;20074;-94
2024/03/05 12:33:30;;;;;;;43.25;36.28;;;;;;;;;;4887096;29;20060;-93
2024/03/05 12:35:58;;;;;;;47.55;39.47;;;;;;;;;;4885760;29;20056;-91
2024/03/05 12:38:24;;;;;;;42.47;36.53;;;;;;;;;;4884039;29;20037;-94
2024/03/05 12:41:00;;;;;;;43.35;38.20;;;;;;;;;;4890779;29;20033;-93
2024/03/05 12:43:29;;;;;;;40.63;33.28;;;;;;;;;;4888412;29;20039;-92
2024/03/05 12:46:04;;;;;;;42.30;35.92;;;;;;;;;;4887647;29;20029;-93
2024/03/05 12:48:31;;;;;;;43.95;39.25;;;;;;;;;;4900705;29;20401;-94
2024/03/05 12:51:03;;;;;;;49.10;41.17;;;;;;;;;;4902424;29;20075;-93
2024/03/05 12:53:30;;;;;;;50.47;45.30;;;;;;;;;;4894948;29;20470;-93
2024/03/05 12:56:00;;;;;;;50.90;45.60;;;;;;;;;;4887522;29;20044;-92
2024/03/05 12:58:26;;;;;;;50.15;44.67;;;;;;;;;;4887548;29;20440;-92
2024/03/05 13:00:55;;;;;;;48.28;43.05;;;;;;;;;;4889626;29;20498;-94
2024/03/05 13:03:21;;;;;;;51.22;45.13;;;;;;;;;;4916500;29;20028;-92
2024/03/05 13:05:47;;;;;;;54.10;48.38;;;;;;;;;;4896343;29;20037;-95
2024/03/05 13:08:14;;;;;;;50.58;45.20;;;;;;;;;;4887108;29;20072;-94
2024/03/05 13:10:40;;;;;;;51.58;46.22;;;;;;;;;;4886727;29;20051;-92
2024/03/05 13:13:07;;;;;;;51.33;45.95;;;;;;;;;;4886348;29;20032;-92
2024/03/05 13:15:33;;;;;;;53.53;47.85;;;;;;;;;;4886227;29;20029;-92
2024/03/05 13:17:59;;;;;;;56.42;50.80;;;;;;;;;;4887027;29;20056;-94
2024/03/05 13:20:25;;;;;;;58.97;53.03;;;;;;;;;;4896899;29;20056;-95
2024/03/05 13:22:56;;;;;;;56.60;50.67;;;;;;;;;;4905826;29;20032;-92
2024/03/05 13:25:26;;;;;;;54.05;48.63;;;;;;;;;;4907271;29;20028;-94
2024/03/05 13:27:52;;;;;;;52.45;47.20;;;;;;;;;;4906908;29;20024;-93
2024/03/05 13:30:21;;;;;;;52.78;47.60;;;;;;;;;;4898645;29;20033;-93
2024/03/05 13:32:49;;;;;;;48.92;43.85;;;;;;;;;;4887501;29;20039;-91
2024/03/05 13:35:16;;;;;;;53.65;47.95;;;;;;;;;;4872336;29;20035;-94
2024/03/05 13:37:43;;;;;;;47.55;42.88;;;;;;;;;;4872228;29;20111;-91
2024/03/05 13:40:13;;;;;;;45.88;41.20;;;;;;;;;;4890837;29;20075;-91
2024/03/05 13:42:40;;;;;;;48.15;43.30;;;;;;;;;;4904241;29;20052;-90
2024/03/05 13:45:15;;;;;;;46.50;41.60;;;;;;;;;;4889702;29;20029;-94
2024/03/05 13:47:42;;;;;;;44.05;39.95;;;;;;;;;;4913943;29;20032;-91
2024/03/05 13:50:12;;;;;;;37.97;34.35;;;;;;;;;;4890454;29;20037;-94
2024/03/05 13:52:42;;;;;;;36.03;32.92;;;;;;;;;;4886698;29;20024;-91
2024/03/05 13:55:09;;;;;;;37.95;34.65;;;;;;;;;;4887810;29;20036;-95
2024/03/05 13:57:36;;;;;;;40.28;36.63;;;;;;;;;;4886297;29;20181;-92
2024/03/05 14:00:03;;;;;;;41.33;37.47;;;;;;;;;;4888841;29;20033;-93
2024/03/05 14:02:30;;;;;;;43.17;39.35;;;;;;;;;;4889161;29;20109;-92
2024/03/05 14:04:56;;;;;;;44.70;40.60;;;;;;;;;;4904359;29;20039;-95
2024/03/05 14:07:22;;;;;;;46.28;42.25;;;;;;;;;;4904337;29;20024;-95
2024/03/05 14:09:48;;;;;;;38.40;34.75;;;;;;;;;;4898321;29;20056;-92
2024/03/05 14:12:16;;;;;;;43.75;39.67;;;;;;;;;;4902433;29;20044;-93
2024/03/05 14:14:43;;;;;;;42.15;38.30;;;;;;;;;;4898432;29;20084;-92
2024/03/05 14:17:10;;;;;;;40.03;36.28;;;;;;;;;;4886053;29;20497;-94
2024/03/05 14:19:39;;;;;;;39.67;36.28;;;;;;;;;;4885718;29;20029;-92
2024/03/05 14:22:05;;;;;;;43.42;39.53;;;;;;;;;;4885506;29;20036;-94
2024/03/05 14:24:31;;;;;;;46.03;42.15;;;;;;;;;;4886188;29;20127;-93
2024/03/05 14:26:59;;;;;;;46.63;42.08;;;;;;;;;;4884728;29;20115;-92
2024/03/05 14:29:28;;;;;;;52.80;48.00;;;;;;;;;;4885716;29;20161;-95
2024/03/05 14:31:54;;;;;;;53.17;48.10;;;;;;;;;;4888421;29;20037;-91
2024/03/05 14:34:26;;;;;;;51.65;46.58;;;;;;;;;;4902103;29;20064;-95
2024/03/05 14:36:53;;;;;;;50.47;45.53;;;;;;;;;;4905562;29;20028;-91